Time;durP1;ratioP1;P1;durP2;ratioP2;P2;SDS_P1;SDS_P2;PMS_P1;PMS_P2;Temp;Humidity;BMP_temperature;BMP_pressure;BME280_temperature;BME280_humidity;BME280_pressure;Samples;Min_cycle;Max_cycle;Signal;HPM_P1;HPM_P2
2022/01/10 00:01:06;;;;;;;26.30;5.85;;;3.70;99.90;;;;;;5065997;28;20170;-66
2022/01/10 00:03:32;;;;;;;25.15;5.70;;;3.60;99.90;;;;;;5066987;28;20509;-66
2022/01/10 00:05:57;;;;;;;19.90;5.25;;;3.60;99.90;;;;;;5067135;28;20048;-67
2022/01/10 00:08:23;;;;;;;20.75;5.32;;;3.50;99.90;;;;;;5066870;28;20512;-66
2022/01/10 00:10:51;;;;;;;20.52;4.93;;;3.50;99.90;;;;;;5067757;28;20060;-66
2022/01/10 00:13:17;;;;;;;18.30;5.13;;;3.60;99.90;;;;;;5067016;28;20090;-66
2022/01/10 00:15:44;;;;;;;21.85;5.22;;;3.50;99.90;;;;;;5070933;28;20058;-67
2022/01/10 00:18:10;;;;;;;20.98;5.05;;;4.70;99.90;;;;;;5052261;28;20091;-66
2022/01/10 00:20:36;;;;;;;18.92;4.85;;;3.50;99.90;;;;;;5053704;28;20465;-66
2022/01/10 00:23:03;;;;;;;22.10;4.90;;;3.60;99.90;;;;;;5052291;28;20049;-66
2022/01/10 00:25:28;;;;;;;20.52;4.78;;;3.60;99.90;;;;;;5054371;28;20045;-65
2022/01/10 00:27:55;;;;;;;19.50;5.10;;;3.60;99.90;;;;;;5074787;28;20056;-65
2022/01/10 00:30:23;;;;;;;22.05;5.30;;;3.50;99.90;;;;;;5071951;28;20089;-66
2022/01/10 00:32:49;;;;;;;17.60;5.30;;;3.50;99.90;;;;;;5070382;28;20048;-66
2022/01/10 00:35:15;;;;;;;27.65;6.32;;;3.40;99.90;;;;;;5053003;28;20060;-66
2022/01/10 00:37:43;;;;;;;26.23;6.00;;;3.40;99.90;;;;;;5070270;28;20118;-66
2022/01/10 00:40:11;;;;;;;21.05;4.68;;;3.40;99.90;;;;;;5052421;28;20135;-66
2022/01/10 00:42:37;;;;;;;19.42;4.85;;;3.30;99.90;;;;;;5051538;28;20045;-66
2022/01/10 00:45:13;;;;;;;19.33;4.75;;;4.80;99.90;;;;;;5059004;28;20408;-65
2022/01/10 00:47:39;;;;;;;19.52;4.75;;;3.30;99.90;;;;;;5018154;28;20061;-65
2022/01/10 00:50:05;;;;;;;20.08;4.82;;;3.30;99.90;;;;;;5069363;28;20102;-66
2022/01/10 00:52:31;;;;;;;22.00;5.18;;;3.30;99.90;;;;;;5070826;28;20055;-65
2022/01/10 00:54:57;;;;;;;14.88;4.15;;;3.20;99.90;;;;;;5070186;28;20040;-65
2022/01/10 00:57:22;;;;;;;18.77;4.60;;;3.20;99.90;;;;;;5069327;28;20060;-65
2022/01/10 00:59:48;;;;;;;19.55;4.88;;;3.20;99.90;;;;;;5052470;28;20675;-65
2022/01/10 01:02:13;;;;;;;23.17;5.65;;;3.20;99.90;;;;;;5051184;28;20036;-65
2022/01/10 01:04:39;;;;;;;21.40;5.05;;;3.20;99.90;;;;;;5070037;28;20048;-65
2022/01/10 01:07:04;;;;;;;23.17;5.45;;;3.20;99.90;;;;;;5070403;28;20088;-65
2022/01/10 01:09:31;;;;;;;26.00;5.20;;;3.10;99.90;;;;;;5069849;28;20040;-65
2022/01/10 01:12:40;;;;;;;20.42;5.13;;;3.20;99.90;;;;;;5069433;28;20143;-65
2022/01/10 01:14:51;;;;;;;21.85;4.90;;;3.20;99.90;;;;;;5066564;28;20457;-65
2022/01/10 01:25:10;;;;;;;21.50;5.30;;;3.20;99.90;;;;;;5058289;28;20048;-66
2022/01/10 01:27:36;;;;;;;19.92;5.40;;;3.20;99.90;;;;;;5034275;28;20060;-66
2022/01/10 01:30:03;;;;;;;18.70;5.70;;;3.10;99.90;;;;;;5072305;28;20052;-65
2022/01/10 01:32:29;;;;;;;25.23;5.88;;;3.10;99.90;;;;;;5069537;28;20383;-66
2022/01/10 01:34:56;;;;;;;26.10;5.82;;;3.10;99.90;;;;;;5064498;28;20067;-66
2022/01/10 01:37:21;;;;;;;24.75;5.18;;;3.10;99.90;;;;;;5053218;28;20079;-66
2022/01/10 01:39:47;;;;;;;19.27;6.07;;;3.00;99.90;;;;;;5051227;28;20041;-66
2022/01/10 01:44:57;;;;;;;21.02;5.40;;;3.20;99.90;;;;;;5069756;28;20044;-66
2022/01/10 01:47:22;;;;;;;19.98;5.60;;;3.00;99.90;;;;;;5050284;28;20109;-65
2022/01/10 01:49:48;;;;;;;22.92;5.75;;;3.00;99.90;;;;;;5070021;28;20385;-66
2022/01/10 01:52:14;;;;;;;22.00;6.32;;;2.90;99.90;;;;;;5070653;28;20142;-66
2022/01/10 01:54:39;;;;;;;18.77;5.63;;;2.90;99.90;;;;;;5052863;28;20582;-66
2022/01/10 01:57:07;;;;;;;19.65;5.85;;;2.80;99.90;;;;;;5068704;28;20128;-66
2022/01/10 01:59:36;;;;;;;19.55;6.47;;;2.80;99.90;;;;;;5069694;28;20048;-66
2022/01/10 02:02:01;;;;;;;22.17;5.80;;;2.80;99.90;;;;;;5067678;28;20053;-66
2022/01/10 02:04:27;;;;;;;25.05;6.22;;;2.80;99.90;;;;;;5034448;28;20055;-65
2022/01/10 02:06:53;;;;;;;17.42;5.97;;;2.80;99.90;;;;;;5068854;28;20117;-66
2022/01/10 02:09:18;;;;;;;27.58;6.20;;;2.80;99.90;;;;;;5050383;28;20502;-66
2022/01/10 02:11:44;;;;;;;24.55;6.70;;;2.70;99.90;;;;;;5067117;28;20059;-66
2022/01/10 02:14:10;;;;;;;21.35;6.05;;;2.80;99.90;;;;;;5050857;28;20049;-66
2022/01/10 02:16:42;;;;;;;23.98;6.10;;;2.80;99.90;;;;;;5068128;28;20055;-66
2022/01/10 02:19:08;;;;;;;25.33;6.15;;;2.70;99.90;;;;;;5068887;28;20044;-66
2022/01/10 02:21:35;;;;;;;22.27;5.72;;;4.30;99.90;;;;;;5049973;28;20412;-66
2022/01/10 02:24:00;;;;;;;25.95;6.75;;;2.80;99.90;;;;;;5068345;28;21060;-66
2022/01/10 02:26:26;;;;;;;22.00;6.65;;;2.80;99.90;;;;;;5049510;28;20068;-66
2022/01/10 02:28:52;;;;;;;13.57;5.70;;;2.80;99.90;;;;;;5070552;28;20132;-66
2022/01/10 02:31:18;;;;;;;18.45;5.97;;;2.70;99.90;;;;;;5068096;28;20120;-66
2022/01/10 02:33:46;;;;;;;18.48;5.57;;;2.70;99.90;;;;;;5068781;28;20067;-66
2022/01/10 02:36:20;;;;;;;23.10;6.47;;;2.70;99.90;;;;;;5067529;28;20053;-66
2022/01/10 02:38:48;;;;;;;21.42;6.13;;;2.70;99.90;;;;;;5068852;28;20095;-66
2022/01/10 02:41:20;;;;;;;25.80;5.88;;;2.70;99.90;;;;;;5067548;28;20048;-66
2022/01/10 02:43:45;;;;;;;31.33;7.20;;;2.70;99.90;;;;;;5032162;28;20143;-66
2022/01/10 02:46:11;;;;;;;22.42;6.63;;;2.60;99.90;;;;;;5029947;28;20144;-66
2022/01/10 02:48:37;;;;;;;17.65;6.32;;;2.60;99.90;;;;;;5050392;28;20053;-65
2022/01/10 02:51:02;;;;;;;22.90;6.80;;;2.60;99.90;;;;;;5047854;28;20053;-66
2022/01/10 02:53:28;;;;;;;27.77;7.55;;;2.50;99.90;;;;;;5019262;28;20056;-66
2022/01/10 02:55:53;;;;;;;21.25;6.43;;;2.50;99.90;;;;;;5067865;28;20048;-66
2022/01/10 02:58:19;;;;;;;24.95;7.00;;;2.50;99.90;;;;;;5049241;28;20052;-66
2022/01/10 03:00:45;;;;;;;18.88;7.28;;;3.50;99.90;;;;;;5050540;28;20438;-66
2022/01/10 03:03:10;;;;;;;19.08;6.28;;;2.80;99.90;;;;;;5067771;28;20080;-66
2022/01/10 03:05:36;;;;;;;29.13;7.38;;;2.50;99.90;;;;;;5052698;28;20080;-66
2022/01/10 03:08:03;;;;;;;25.88;6.75;;;2.50;99.90;;;;;;5070797;28;20476;-66
2022/01/10 03:10:29;;;;;;;24.77;7.78;;;2.50;99.90;;;;;;5069515;28;20041;-65
2022/01/10 03:12:56;;;;;;;25.25;6.80;;;2.50;99.90;;;;;;5067517;28;20127;-65
2022/01/10 03:15:21;;;;;;;29.55;7.50;;;2.50;99.90;;;;;;5068338;28;20131;-66
2022/01/10 03:17:47;;;;;;;25.92;7.13;;;2.50;99.90;;;;;;5066213;28;20127;-66
2022/01/10 03:20:13;;;;;;;22.83;6.57;;;2.40;99.90;;;;;;5068497;28;20107;-66
2022/01/10 03:22:38;;;;;;;19.33;6.93;;;2.40;99.90;;;;;;5068172;28;20052;-66
2022/01/10 03:25:05;;;;;;;21.73;7.45;;;2.40;99.90;;;;;;5049289;28;20052;-66
2022/01/10 03:27:31;;;;;;;22.00;6.75;;;2.40;99.90;;;;;;5049886;28;20048;-65
2022/01/10 03:29:56;;;;;;;25.65;7.90;;;2.40;99.90;;;;;;5071370;28;20190;-66
2022/01/10 03:32:22;;;;;;;24.13;7.03;;;2.40;99.90;;;;;;5068865;28;20148;-65
2022/01/10 03:34:48;;;;;;;24.35;7.45;;;2.30;99.90;;;;;;5046929;28;20044;-65
2022/01/10 03:37:14;;;;;;;23.13;7.28;;;2.30;99.90;;;;;;5051380;28;20159;-66
2022/01/10 03:39:39;;;;;;;18.40;7.75;;;2.30;99.90;;;;;;5066683;28;20052;-66
2022/01/10 03:42:07;;;;;;;21.25;6.50;;;2.30;99.90;;;;;;5067287;28;20044;-66
2022/01/10 03:44:33;;;;;;;24.50;7.47;;;2.30;99.90;;;;;;5067635;28;20041;-66
2022/01/10 03:46:59;;;;;;;22.35;8.27;;;2.30;99.90;;;;;;5048346;28;20071;-66
2022/01/10 03:49:25;;;;;;;27.35;8.25;;;2.20;99.90;;;;;;5069982;28;20048;-66
2022/01/10 03:51:51;;;;;;;24.13;7.68;;;2.30;99.90;;;;;;5071264;28;20048;-65
2022/01/10 03:54:16;;;;;;;20.90;7.93;;;2.30;99.90;;;;;;5070306;28;20052;-66
2022/01/10 03:56:42;;;;;;;20.42;7.50;;;2.20;99.90;;;;;;5071285;28;20054;-66
2022/01/10 03:59:08;;;;;;;28.30;8.00;;;2.20;99.90;;;;;;5071230;28;20134;-65
2022/01/10 04:01:37;;;;;;;21.98;8.43;;;2.20;99.90;;;;;;5070094;28;20052;-66
2022/01/10 04:04:03;;;;;;;25.85;8.15;;;2.10;99.90;;;;;;5071670;28;20365;-66
2022/01/10 04:06:29;;;;;;;25.02;8.45;;;2.10;99.90;;;;;;5070793;28;20063;-66
2022/01/10 04:08:54;;;;;;;25.63;8.93;;;2.10;99.90;;;;;;5053734;28;20059;-66
2022/01/10 04:11:20;;;;;;;29.70;8.90;;;2.10;99.90;;;;;;5051355;28;20135;-66
2022/01/10 04:13:46;;;;;;;23.10;8.93;;;2.10;99.90;;;;;;5071188;28;20071;-66
2022/01/10 04:16:11;;;;;;;22.58;8.27;;;2.00;99.90;;;;;;5070234;28;20049;-65
2022/01/10 04:18:37;;;;;;;24.33;8.80;;;2.10;99.90;;;;;;5071309;28;20114;-66
2022/01/10 04:21:03;;;;;;;21.23;8.75;;;2.00;99.90;;;;;;5070717;28;20124;-66
2022/01/10 04:23:28;;;;;;;30.63;9.75;;;2.00;99.90;;;;;;5072433;28;20484;-66
2022/01/10 04:25:54;;;;;;;29.77;10.90;;;2.00;99.90;;;;;;5073199;28;20551;-66
2022/01/10 04:28:19;;;;;;;29.63;10.50;;;2.00;99.90;;;;;;5070136;28;20044;-66
2022/01/10 04:30:45;;;;;;;29.55;10.88;;;2.00;99.90;;;;;;5071525;28;20045;-66
2022/01/10 04:33:17;;;;;;;23.55;10.43;;;2.00;99.90;;;;;;5070146;28;20664;-65
2022/01/10 04:35:42;;;;;;;25.27;10.23;;;2.00;99.90;;;;;;5052314;28;20095;-65
2022/01/10 04:38:09;;;;;;;27.92;10.80;;;2.00;99.90;;;;;;5070738;28;20086;-65
2022/01/10 04:40:35;;;;;;;27.25;11.35;;;1.90;99.90;;;;;;5069725;28;20569;-66
2022/01/10 04:43:01;;;;;;;28.83;11.68;;;1.90;99.90;;;;;;5069795;28;20093;-66
2022/01/10 04:45:26;;;;;;;25.17;11.20;;;3.40;99.90;;;;;;5072353;28;20041;-65
2022/01/10 04:47:52;;;;;;;32.28;11.68;;;2.00;99.90;;;;;;5068555;28;20091;-65
2022/01/10 04:52:47;;;;;;;32.88;12.90;;;2.00;99.90;;;;;;5051993;28;20057;-65
2022/01/10 04:55:13;;;;;;;30.30;12.63;;;2.00;99.90;;;;;;5070087;28;20562;-65
2022/01/10 04:57:39;;;;;;;36.58;12.40;;;2.00;99.90;;;;;;5069563;28;20091;-66
2022/01/10 05:00:07;;;;;;;30.38;12.40;;;1.90;99.90;;;;;;5069690;28;20057;-66
2022/01/10 05:02:33;;;;;;;30.15;12.38;;;1.90;99.90;;;;;;5069650;28;20123;-66
2022/01/10 05:04:59;;;;;;;35.63;13.30;;;1.90;99.90;;;;;;5072841;28;20481;-65
2022/01/10 05:07:24;;;;;;;32.90;13.32;;;1.90;99.90;;;;;;5072909;28;20059;-65
2022/01/10 05:09:50;;;;;;;30.60;12.77;;;1.90;99.90;;;;;;5054500;28;20056;-66
2022/01/10 05:12:15;;;;;;;30.23;13.63;;;2.50;99.90;;;;;;5071956;28;20116;-66
2022/01/10 05:14:41;;;;;;;31.60;13.35;;;1.90;99.90;;;;;;5052751;28;20048;-66
2022/01/10 05:17:07;;;;;;;28.00;13.27;;;1.80;99.90;;;;;;5049949;28;20049;-66
2022/01/10 05:19:33;;;;;;;29.98;13.27;;;1.80;99.90;;;;;;5070069;28;20052;-66
2022/01/10 05:21:58;;;;;;;34.17;13.68;;;1.80;99.90;;;;;;5069806;28;20127;-66
2022/01/10 05:24:24;;;;;;;33.75;13.40;;;1.80;99.90;;;;;;5050733;28;20070;-65
2022/01/10 05:26:50;;;;;;;29.95;13.57;;;2.50;99.90;;;;;;5069506;28;20373;-66
2022/01/10 05:29:16;;;;;;;36.47;14.85;;;1.80;99.90;;;;;;5069612;28;20056;-66
2022/01/10 05:31:42;;;;;;;36.25;14.85;;;1.80;99.90;;;;;;5068763;28;20049;-65
2022/01/10 05:34:07;;;;;;;35.08;14.13;;;1.80;99.90;;;;;;5064065;28;20055;-66
2022/01/10 05:36:33;;;;;;;35.20;15.20;;;1.80;99.90;;;;;;5065856;28;20417;-66
2022/01/10 05:38:58;;;;;;;31.38;14.60;;;1.80;99.90;;;;;;5064962;28;20053;-65
2022/01/10 05:41:24;;;;;;;42.92;16.02;;;1.80;99.90;;;;;;5068587;28;20053;-68
2022/01/10 05:43:50;;;;;;;35.38;15.13;;;1.80;99.90;;;;;;5069497;28;20045;-65
2022/01/10 05:46:19;;;;;;;32.13;15.73;;;1.80;99.90;;;;;;5067384;28;20052;-65
2022/01/10 05:48:48;;;;;;;42.78;15.75;;;1.80;99.90;;;;;;5070901;28;20056;-67
2022/01/10 05:51:16;;;;;;;40.00;15.82;;;1.80;99.90;;;;;;5070165;28;20135;-67
2022/01/10 05:53:42;;;;;;;37.35;15.70;;;1.80;99.90;;;;;;5068850;28;20515;-67
2022/01/10 05:56:08;;;;;;;39.88;15.55;;;1.80;99.90;;;;;;5050762;28;20075;-66
2022/01/10 05:58:33;;;;;;;41.55;16.33;;;0.90;99.90;;;;;;5068551;28;20056;-66
2022/01/10 06:00:59;;;;;;;34.65;15.25;;;1.70;99.90;;;;;;5068420;28;20052;-67
2022/01/10 06:03:25;;;;;;;41.13;18.27;;;1.70;99.90;;;;;;5068134;28;20489;-66
2022/01/10 06:05:50;;;;;;;36.50;16.42;;;1.70;99.90;;;;;;5069934;28;20114;-66
2022/01/10 06:08:17;;;;;;;38.95;17.63;;;1.70;99.90;;;;;;5069627;28;20102;-67
2022/01/10 06:10:43;;;;;;;39.38;17.92;;;1.70;99.90;;;;;;5063663;28;20040;-67
2022/01/10 06:13:09;;;;;;;39.28;17.40;;;1.70;99.90;;;;;;5049381;28;20135;-66
2022/01/10 06:15:35;;;;;;;40.72;17.88;;;1.70;99.90;;;;;;5068342;28;20485;-66
2022/01/10 06:18:01;;;;;;;43.38;18.55;;;1.70;99.90;;;;;;5049050;28;20055;-67
2022/01/10 06:20:26;;;;;;;43.35;18.20;;;1.70;99.90;;;;;;5050818;28;20140;-66
2022/01/10 06:22:52;;;;;;;44.85;19.15;;;1.70;99.90;;;;;;5067924;28;20122;-67
2022/01/10 06:25:22;;;;;;;41.92;18.30;;;1.70;99.90;;;;;;5068239;28;20052;-67
2022/01/10 06:27:47;;;;;;;37.92;17.65;;;1.70;99.90;;;;;;5067169;28;20543;-66
2022/01/10 06:30:13;;;;;;;39.85;18.98;;;1.80;99.90;;;;;;5068516;28;20084;-66
2022/01/10 06:32:39;;;;;;;45.40;19.35;;;1.70;99.90;;;;;;5067369;28;20064;-66
2022/01/10 06:35:05;;;;;;;45.58;20.88;;;1.80;99.90;;;;;;5068292;28;20047;-67
2022/01/10 06:37:31;;;;;;;42.75;20.40;;;1.80;99.90;;;;;;5050331;28;20548;-67
2022/01/10 06:39:56;;;;;;;42.70;20.13;;;1.70;99.90;;;;;;5029476;28;20132;-66
2022/01/10 06:42:22;;;;;;;45.92;20.33;;;1.80;99.90;;;;;;5050126;28;20060;-67
2022/01/10 06:44:48;;;;;;;47.65;18.92;;;1.80;99.90;;;;;;5058626;28;20115;-66
2022/01/10 06:47:14;;;;;;;40.15;20.45;;;1.80;99.90;;;;;;5048805;28;20386;-66
2022/01/10 06:49:39;;;;;;;45.25;21.67;;;1.80;99.90;;;;;;5034208;28;20196;-66
2022/01/10 06:52:05;;;;;;;42.78;20.55;;;1.80;99.90;;;;;;5064748;28;20131;-66
2022/01/10 06:54:31;;;;;;;44.45;20.95;;;1.80;99.90;;;;;;5033087;28;20060;-66
2022/01/10 06:56:58;;;;;;;41.13;20.92;;;1.80;99.90;;;;;;5048868;28;20052;-66
2022/01/10 06:59:25;;;;;;;47.03;21.58;;;2.50;99.90;;;;;;5064906;28;20057;-66
2022/01/10 07:01:52;;;;;;;55.60;22.20;;;3.50;99.90;;;;;;5045944;28;20464;-66
2022/01/10 07:04:17;;;;;;;47.75;21.52;;;1.80;99.90;;;;;;5048034;28;20398;-67
2022/01/10 07:06:43;;;;;;;47.92;20.45;;;1.80;99.90;;;;;;5065992;28;20067;-66
2022/01/10 07:09:09;;;;;;;51.67;22.17;;;1.80;99.90;;;;;;5048905;28;20044;-66
2022/01/10 07:11:35;;;;;;;40.03;20.30;;;1.80;99.90;;;;;;5049587;28;20063;-66
2022/01/10 07:14:00;;;;;;;44.60;20.90;;;1.90;99.90;;;;;;5033686;28;20059;-66
2022/01/10 07:16:26;;;;;;;46.17;20.83;;;1.80;99.90;;;;;;5066277;28;20052;-66
2022/01/10 07:18:51;;;;;;;47.40;21.20;;;1.70;99.90;;;;;;5068478;28;20396;-66
2022/01/10 07:21:17;;;;;;;45.20;21.48;;;1.80;99.90;;;;;;5032420;28;20049;-67
2022/01/10 07:23:43;;;;;;;52.20;22.42;;;1.80;99.90;;;;;;5066589;28;20071;-66
2022/01/10 07:26:09;;;;;;;51.88;21.58;;;1.70;99.90;;;;;;5067458;28;20052;-67
2022/01/10 07:28:34;;;;;;;48.08;22.73;;;1.70;99.90;;;;;;5069564;28;20052;-66
2022/01/10 07:31:00;;;;;;;45.63;22.15;;;1.70;99.90;;;;;;5065733;28;20052;-66
2022/01/10 07:33:26;;;;;;;49.72;22.80;;;1.70;99.90;;;;;;5062514;28;20064;-66
2022/01/10 07:35:51;;;;;;;50.95;22.08;;;1.70;99.90;;;;;;5013421;28;20041;-65
2022/01/10 07:38:17;;;;;;;47.97;21.67;;;3.00;99.90;;;;;;5029583;28;20438;-66
2022/01/10 07:40:42;;;;;;;45.63;21.48;;;1.80;99.90;;;;;;5047366;28;20049;-66
2022/01/10 07:43:08;;;;;;;50.50;22.58;;;1.80;99.90;;;;;;5046978;28;20056;-65
2022/01/10 07:45:34;;;;;;;47.20;22.70;;;1.70;99.90;;;;;;5012584;28;20086;-66
2022/01/10 07:48:00;;;;;;;46.45;21.55;;;1.80;99.90;;;;;;5041294;28;20056;-66
2022/01/10 07:50:26;;;;;;;43.42;22.27;;;3.50;99.90;;;;;;5067715;28;20056;-66
2022/01/10 07:52:52;;;;;;;43.08;22.67;;;1.80;99.90;;;;;;5048864;28;20193;-66
2022/01/10 07:55:18;;;;;;;50.20;23.48;;;2.70;99.90;;;;;;5049906;28;20052;-66
2022/01/10 07:57:45;;;;;;;44.40;22.50;;;1.80;99.90;;;;;;5067788;28;20060;-66
2022/01/10 08:00:12;;;;;;;46.05;22.85;;;1.80;99.90;;;;;;5049091;28;20098;-66
2022/01/10 08:02:38;;;;;;;45.67;23.73;;;1.80;99.90;;;;;;5066565;28;20049;-66
2022/01/10 08:05:05;;;;;;;47.03;22.45;;;1.80;99.90;;;;;;5066002;28;20055;-65
2022/01/10 08:07:30;;;;;;;41.80;22.98;;;1.80;99.90;;;;;;5048754;28;20158;-66
2022/01/10 08:09:56;;;;;;;44.60;23.50;;;1.80;99.90;;;;;;5048804;28;20048;-67
2022/01/10 08:12:21;;;;;;;51.33;25.33;;;1.80;99.90;;;;;;5067219;28;20055;-66
2022/01/10 08:14:48;;;;;;;51.33;25.80;;;1.80;99.90;;;;;;5067741;28;20070;-66
2022/01/10 08:17:14;;;;;;;48.35;23.38;;;1.80;99.90;;;;;;5066580;28;20055;-66
2022/01/10 08:19:40;;;;;;;55.15;24.10;;;1.80;99.90;;;;;;5059664;28;20060;-68
2022/01/10 08:22:06;;;;;;;48.20;23.33;;;1.80;99.90;;;;;;5066007;28;20049;-66
2022/01/10 08:24:33;;;;;;;49.95;25.02;;;1.80;99.90;;;;;;5066474;28;20056;-66
2022/01/10 08:26:58;;;;;;;42.30;24.38;;;1.90;99.90;;;;;;5066391;28;20118;-66
2022/01/10 08:29:24;;;;;;;48.78;25.10;;;1.90;99.90;;;;;;5049243;28;20512;-66
2022/01/10 08:31:50;;;;;;;48.00;22.95;;;2.00;99.90;;;;;;5047281;28;20411;-66
2022/01/10 08:34:16;;;;;;;46.83;22.80;;;2.10;99.90;;;;;;5066598;28;20163;-66
2022/01/10 08:36:41;;;;;;;42.10;23.92;;;2.20;99.90;;;;;;5070631;28;20501;-66
2022/01/10 08:39:08;;;;;;;46.47;22.58;;;2.30;99.90;;;;;;5052466;28;20482;-67
2022/01/10 08:41:35;;;;;;;40.75;22.17;;;3.40;99.90;;;;;;5033944;28;20064;-66
2022/01/10 08:44:04;;;;;;;43.58;21.67;;;2.40;99.90;;;;;;5050518;28;20359;-66
2022/01/10 08:46:30;;;;;;;38.42;21.33;;;2.40;99.90;;;;;;5031461;28;20049;-66
2022/01/10 08:48:56;;;;;;;43.35;21.63;;;2.50;99.90;;;;;;5059484;28;20453;-66
2022/01/10 08:51:23;;;;;;;39.03;21.60;;;2.60;99.90;;;;;;5050918;28;20102;-66
2022/01/10 08:53:49;;;;;;;40.22;21.40;;;2.60;99.90;;;;;;5068056;28;20063;-66
2022/01/10 08:56:15;;;;;;;38.92;21.35;;;2.70;99.90;;;;;;5069991;28;20569;-67
2022/01/10 08:58:41;;;;;;;38.47;22.73;;;2.80;99.90;;;;;;5055367;28;20155;-66
2022/01/10 09:01:07;;;;;;;37.95;21.00;;;2.90;99.90;;;;;;5057574;28;20088;-66
2022/01/10 09:03:34;;;;;;;36.13;20.25;;;3.00;99.90;;;;;;5031208;28;20103;-66
2022/01/10 09:06:00;;;;;;;37.47;21.70;;;3.10;99.90;;;;;;5050224;28;20111;-66
2022/01/10 09:08:31;;;;;;;37.55;19.88;;;3.20;99.90;;;;;;5064857;28;20055;-66
2022/01/10 09:10:57;;;;;;;34.22;19.67;;;3.40;99.90;;;;;;5068950;28;20090;-67
2022/01/10 09:13:23;;;;;;;35.05;19.17;;;3.50;99.90;;;;;;5069628;28;20091;-66
2022/01/10 09:15:50;;;;;;;32.05;19.38;;;3.60;99.90;;;;;;5071672;28;20040;-66
2022/01/10 09:18:16;;;;;;;35.42;18.55;;;3.80;99.90;;;;;;5054059;28;20052;-67
2022/01/10 09:20:45;;;;;;;32.05;19.45;;;3.90;99.90;;;;;;5050665;28;20054;-68
2022/01/10 09:23:12;;;;;;;31.80;17.45;;;4.00;99.90;;;;;;5068249;28;20463;-66
2022/01/10 09:25:38;;;;;;;32.72;17.60;;;4.10;99.90;;;;;;5069365;28;20044;-66
2022/01/10 09:28:04;;;;;;;30.58;18.00;;;4.40;99.90;;;;;;5068537;28;20102;-66
2022/01/10 09:30:30;;;;;;;28.17;16.17;;;4.80;99.90;;;;;;5050359;28;20105;-67
2022/01/10 09:32:56;;;;;;;27.35;15.98;;;6.00;99.90;;;;;;5068414;28;20052;-67
2022/01/10 09:35:22;;;;;;;27.90;16.23;;;5.70;99.90;;;;;;5051264;28;20053;-67
2022/01/10 09:37:48;;;;;;;29.27;15.32;;;6.20;99.90;;;;;;5037488;28;20101;-67
2022/01/10 09:40:14;;;;;;;24.23;14.27;;;6.70;99.90;;;;;;5068972;28;20537;-66
2022/01/10 09:42:41;;;;;;;26.85;14.52;;;7.20;99.90;;;;;;5068616;28;20205;-67
2022/01/10 09:45:07;;;;;;;24.50;15.27;;;7.70;99.90;;;;;;5040645;28;20182;-66
2022/01/10 09:47:34;;;;;;;22.70;13.75;;;8.10;99.90;;;;;;5045672;28;20056;-66
2022/01/10 09:50:00;;;;;;;23.05;13.68;;;8.60;99.90;;;;;;5048214;28;20052;-66
2022/01/10 09:52:26;;;;;;;24.00;13.63;;;9.40;99.90;;;;;;5068221;28;20063;-67
2022/01/10 09:54:53;;;;;;;21.98;13.95;;;10.70;99.90;;;;;;5068067;28;20040;-67
2022/01/10 09:57:20;;;;;;;23.88;13.93;;;9.90;99.90;;;;;;5065789;28;20208;-67
2022/01/10 09:59:47;;;;;;;21.90;12.52;;;10.70;99.90;;;;;;5050530;28;20136;-67
2022/01/10 10:02:16;;;;;;;22.95;13.07;;;11.10;99.90;;;;;;5067874;28;20060;-67
2022/01/10 10:04:43;;;;;;;22.10;12.65;;;11.20;99.90;;;;;;5068918;28;20055;-67
2022/01/10 10:07:09;;;;;;;23.35;13.70;;;11.60;99.90;;;;;;5067842;28;20830;-67
2022/01/10 10:09:35;;;;;;;24.63;13.18;;;12.40;99.90;;;;;;5066126;28;20330;-67
2022/01/10 10:12:03;;;;;;;24.30;14.13;;;12.80;99.90;;;;;;5049978;28;20163;-68
2022/01/10 10:14:30;;;;;;;23.15;13.18;;;12.60;99.90;;;;;;5051242;28;20061;-67
2022/01/10 10:16:57;;;;;;;24.52;13.50;;;13.20;99.90;;;;;;5030123;28;20056;-67
2022/01/10 10:19:29;;;;;;;26.67;12.77;;;13.50;99.90;;;;;;5055986;28;20476;-67
2022/01/10 10:21:56;;;;;;;20.13;13.00;;;13.50;99.90;;;;;;5066510;28;20075;-67
2022/01/10 10:24:23;;;;;;;24.50;13.10;;;13.10;99.90;;;;;;5068452;28;20083;-66
2022/01/10 10:26:50;;;;;;;23.58;13.25;;;13.30;99.90;;;;;;5049442;28;20068;-67
2022/01/10 10:29:17;;;;;;;22.45;12.73;;;14.20;99.90;;;;;;5067849;28;20456;-67
2022/01/10 10:31:48;;;;;;;25.60;12.25;;;14.40;99.90;;;;;;5054418;28;20052;-67
2022/01/10 10:34:20;;;;;;;20.98;12.48;;;14.00;99.90;;;;;;5067762;28;20432;-66
2022/01/10 10:36:57;;;;;;;22.98;12.95;;;13.80;99.90;;;;;;5049884;28;20058;-67
2022/01/10 10:39:25;;;;;;;21.35;12.65;;;14.20;99.90;;;;;;5046827;28;20052;-67
2022/01/10 10:41:55;;;;;;;21.73;11.93;;;14.30;99.90;;;;;;5066541;28;20554;-66
2022/01/10 10:44:21;;;;;;;18.38;11.80;;;14.60;99.90;;;;;;5046176;28;20037;-66
2022/01/10 10:46:49;;;;;;;22.52;12.15;;;14.40;99.90;;;;;;5050951;28;20044;-66
2022/01/10 10:49:18;;;;;;;21.60;12.18;;;14.90;99.90;;;;;;5067839;28;20105;-66
2022/01/10 10:51:47;;;;;;;19.23;11.68;;;15.40;99.90;;;;;;5051046;28;20102;-66
2022/01/10 10:54:14;;;;;;;24.10;11.98;;;15.50;99.90;;;;;;5067887;28;20064;-66
2022/01/10 10:56:43;;;;;;;19.40;11.65;;;16.00;99.90;;;;;;5049202;28;20109;-66
2022/01/10 10:59:11;;;;;;;21.30;11.82;;;15.40;99.90;;;;;;5067297;28;20052;-66
2022/01/10 11:01:37;;;;;;;19.95;11.77;;;16.10;99.90;;;;;;5042874;28;20052;-66
2022/01/10 11:04:05;;;;;;;20.23;11.25;;;15.90;99.90;;;;;;5067908;28;20045;-66
2022/01/10 11:06:34;;;;;;;18.20;11.15;;;15.80;99.90;;;;;;5054024;28;20122;-67
2022/01/10 11:09:03;;;;;;;21.40;11.43;;;16.00;99.90;;;;;;5063095;28;20613;-66
2022/01/10 11:11:29;;;;;;;22.02;11.88;;;15.80;99.90;;;;;;5046686;28;20175;-67
2022/01/10 11:13:56;;;;;;;18.95;10.90;;;16.10;99.90;;;;;;5049796;28;20562;-67
2022/01/10 11:16:26;;;;;;;19.33;12.00;;;16.60;99.90;;;;;;5047300;28;20080;-66
2022/01/10 11:18:52;;;;;;;19.98;11.20;;;17.10;99.90;;;;;;5067126;28;20151;-67
2022/01/10 11:21:17;;;;;;;20.08;10.82;;;17.20;99.90;;;;;;5066376;28;20052;-67
2022/01/10 11:23:46;;;;;;;19.92;10.88;;;17.50;99.90;;;;;;5066892;28;20047;-67
2022/01/10 11:26:14;;;;;;;21.15;10.52;;;17.90;99.60;;;;;;5029349;28;20429;-73
2022/01/10 11:28:52;;;;;;;17.27;10.02;;;18.50;97.60;;;;;;5046030;28;20047;-74
2022/01/10 11:31:28;;;;;;;17.55;9.90;;;18.80;96.30;;;;;;5045024;28;20055;-73
2022/01/10 11:33:56;;;;;;;17.15;9.38;;;19.20;95.20;;;;;;5047428;28;20059;-74
2022/01/10 11:36:24;;;;;;;19.83;9.60;;;19.50;94.80;;;;;;5063967;28;20052;-74
2022/01/10 11:38:58;;;;;;;16.73;9.60;;;19.40;95.90;;;;;;5044622;28;20063;-74
2022/01/10 11:41:25;;;;;;;18.80;9.48;;;19.50;95.80;;;;;;5060924;28;20056;-74
2022/01/10 11:43:56;;;;;;;17.00;9.57;;;19.90;95.70;;;;;;5061075;28;20474;-73
2022/01/10 11:46:42;;;;;;;17.08;8.82;;;19.60;96.40;;;;;;5059529;28;20048;-74
2022/01/10 11:49:08;;;;;;;19.95;9.70;;;19.90;92.70;;;;;;5033638;28;20115;-73
2022/01/10 11:51:37;;;;;;;17.42;8.70;;;19.90;94.20;;;;;;5025035;28;20547;-74
2022/01/10 11:54:29;;;;;;;18.33;9.73;;;19.90;96.00;;;;;;5057053;28;20056;-73
2022/01/10 11:57:01;;;;;;;20.05;9.77;;;19.90;96.40;;;;;;5064451;28;20546;-73
2022/01/10 11:59:40;;;;;;;15.77;9.35;;;20.20;96.60;;;;;;5064145;28;20098;-74
2022/01/10 12:02:20;;;;;;;21.20;10.32;;;20.60;93.40;;;;;;5025640;28;20092;-73
2022/01/10 12:05:02;;;;;;;20.98;10.20;;;20.80;91.80;;;;;;5043604;28;20519;-74
2022/01/10 12:07:28;;;;;;;19.73;10.23;;;21.30;92.50;;;;;;5064757;28;20049;-74
2022/01/10 12:09:56;;;;;;;21.38;10.77;;;21.30;91.50;;;;;;5067054;28;20045;-69
2022/01/10 12:12:25;;;;;;;22.20;11.48;;;21.50;89.90;;;;;;5052135;28;20056;-70
2022/01/10 12:14:55;;;;;;;20.08;10.38;;;22.00;91.40;;;;;;5073976;28;20057;-67
2022/01/10 12:17:21;;;;;;;19.92;11.00;;;22.70;90.20;;;;;;5037383;28;20139;-67
2022/01/10 12:19:46;;;;;;;19.88;11.55;;;23.30;81.20;;;;;;5052872;28;20194;-67
2022/01/10 12:22:12;;;;;;;23.13;11.02;;;23.50;78.80;;;;;;5071122;28;20051;-67
2022/01/10 12:24:39;;;;;;;20.60;10.98;;;23.80;79.80;;;;;;5070969;28;20373;-67
2022/01/10 12:27:07;;;;;;;18.10;10.23;;;24.00;80.10;;;;;;5050333;28;20056;-67
2022/01/10 12:29:34;;;;;;;21.27;10.50;;;23.40;81.20;;;;;;5072643;28;20152;-67
2022/01/10 12:32:00;;;;;;;18.40;8.75;;;23.90;76.50;;;;;;5069228;28;20044;-69
2022/01/10 12:34:27;;;;;;;20.77;9.40;;;24.40;76.30;;;;;;5069825;28;20076;-68
2022/01/10 12:36:52;;;;;;;19.08;9.57;;;24.70;72.40;;;;;;5070357;28;20040;-68
2022/01/10 12:39:25;;;;;;;18.90;9.35;;;25.10;72.10;;;;;;5071562;28;20386;-68
2022/01/10 12:41:52;;;;;;;18.80;9.75;;;25.80;65.30;;;;;;5072522;28;20056;-69
2022/01/10 12:44:19;;;;;;;16.85;8.10;;;25.50;65.60;;;;;;5070545;28;20497;-69
2022/01/10 12:46:45;;;;;;;17.55;9.18;;;24.90;65.40;;;;;;5069583;28;20049;-69
2022/01/10 12:49:12;;;;;;;18.27;8.30;;;24.70;61.10;;;;;;5057391;28;20598;-77